Hauptseite
METAR-TAF:

METAR-TAF

Flughäfen :

London Biggin Hill, England

London Biggin Hill Airport

Breite: 51-19N, Länge: 000-02E, Höhe: 183 m

Beobachtung

Neuester Wetterbericht von vor 2 Stunden und 43 Minuten, um 20:20 UTC
Wind 5 kt aus Südost
Temperatur 18°C
Luftfeuchtigkeit 73%
Luftdruck 1016 hPa
Sichtweite: 8000 m

METAR: EGKB 212020Z 13005KT 8000 NSC 18/13 Q1016

Zeit: 00:03 (23:03 UTC)

Prognose

Neuester Wetterbericht von vor 6 Stunden und 5 Minuten, um 16:58 UTC
Gültige Prognose vom 21 um 18 UTC bis 22 um 03 UTC
Wind 5 kt aus Ost
Sichtweite 10 km oder mehr
Leicht bewölkt in der Höhe von 4500 ft
Zeitweise
vom 21 um 18 UTC bis 21 um 21 UTC
Regenschauer
Wahrscheinlichkeit 30% :
Zeitweise
vom 21 um 18 UTC bis 21 um 21 UTC
Sichtweite: 5000 m
Regenschauer, Gewitter, Reif oder Frostgraupel

TAF: EGKB 211658Z 2118/2203 09005KT 9999 FEW045 TEMPO 2118/2121 SHRA PROB30 TEMPO 2118/2121 5000 +SHRA TSGS

Wetterbeobachtungen und Prognosen von mehr als 4000 Flughäfen (METAR und TAF Bericht).

Die verfügbaren Stationen werden durch gelbe und rote Markierungen auf der Karte dargestellt.

Führen Sie die Maus auf sie, um den Namen der Station zu sehen.

Darauf klicken, um die Beobachtung von Wetterbeobachtungen und Prognosen zu sehen.

Um die Karte zu ändern : klicken Sie auf den grünen Tasten mit einem schwarzen Kreuz Zum Vergrößern, auf den grünen Button mit einem Gedankenstrich zu verkleinern, oder auf die grünen Pfeile für benachbarte Karten.


METAR-TAF: